Time,TemperatureF,DewpointF,PressureIn,WindDirection,WindDirectionDegrees,WindSpeedMPH,WindSpeedGustMPH,Humidity,HourlyPrecipIn,Conditions,Clouds,dailyrainin,SoftwareType,DateUTC
2013-02-11 09:33:00,36.0,33.0,29.32,SW,215,0.0,0.0,87,0.01,,,0.76,,2013-02-11 14:33:00,
2013-02-11 09:42:00,36.0,32.0,29.32,SW,218,0.0,0.0,86,0.00,,,0.76,,2013-02-11 14:42:00,
2013-02-11 09:53:00,36.0,32.0,29.32,SW,218,0.0,0.0,86,0.00,,,0.76,,2013-02-11 14:53:00,
2013-02-11 10:02:00,36.0,32.0,29.32,SW,218,0.0,0.0,84,0.00,,,0.76,,2013-02-11 15:02:00,
2013-02-11 10:11:00,36.0,32.0,29.32,SW,218,0.0,0.0,84,0.00,,,0.76,,2013-02-11 15:11:00,
2013-02-11 10:22:00,36.0,31.0,29.32,SW,218,0.0,0.0,83,0.00,,,0.76,,2013-02-11 15:22:00,
2013-02-11 10:32:00,36.0,32.0,29.32,WSW,239,0.0,0.0,86,0.00,,,0.76,,2013-02-11 15:32:00,
2013-02-11 10:42:00,35.0,32.0,29.32,SW,222,0.0,0.0,87,0.00,,,0.76,,2013-02-11 15:42:00,
2013-02-11 10:52:00,35.0,32.0,29.32,SW,222,0.0,0.0,87,0.00,,,0.76,,2013-02-11 15:52:00,
2013-02-11 11:02:00,35.0,32.0,29.32,SW,230,0.0,0.0,89,0.01,,,0.77,,2013-02-11 16:02:00,
2013-02-11 11:12:00,35.0,32.0,29.32,SW,230,0.0,0.0,89,0.01,,,0.77,,2013-02-11 16:12:00,
2013-02-11 11:22:00,34.0,31.0,29.32,SSW,211,0.0,0.0,89,0.01,,,0.77,,2013-02-11 16:22:00,
2013-02-11 11:32:00,35.0,32.0,29.32,WSW,239,0.0,0.0,88,0.01,,,0.77,,2013-02-11 16:32:00,
2013-02-11 11:42:00,35.0,32.0,29.32,SW,232,0.0,0.0,88,0.01,,,0.77,,2013-02-11 16:42:00,
2013-02-11 11:53:00,35.0,32.0,29.32,SW,232,0.0,0.0,88,0.01,,,0.77,,2013-02-11 16:53:00,
2013-02-11 12:02:00,35.0,32.0,29.32,SW,222,0.0,0.0,89,0.00,,,0.77,,2013-02-11 17:02:00,
2013-02-11 12:11:00,35.0,32.0,29.32,SW,222,0.0,0.0,89,0.00,,,0.77,,2013-02-11 17:11:00,
2013-02-11 12:22:00,35.0,32.0,29.32,SW,232,0.0,0.0,88,0.01,,,0.78,,2013-02-11 17:22:00,
2013-02-11 12:32:00,35.0,32.0,29.32,SW,232,0.0,0.0,87,0.01,,,0.78,,2013-02-11 17:32:00,
2013-02-11 12:42:00,35.0,32.0,29.32,SW,232,0.0,0.0,87,0.01,,,0.78,,2013-02-11 17:42:00,
2013-02-11 12:53:00,35.0,32.0,29.32,SW,229,0.0,0.0,88,0.01,,,0.78,,2013-02-11 17:53:00,
2013-02-11 13:01:00,35.0,32.0,29.31,SW,215,0.0,0.0,88,0.00,,,0.77,,2013-02-11 18:01:00,
2013-02-11 13:02:00,35.0,32.0,29.31,WSW,241,0.0,0.0,88,0.01,,,0.78,,2013-02-11 18:02:00,
2013-02-11 13:11:00,35.0,32.0,29.31,WSW,241,0.0,0.0,88,0.01,,,0.78,,2013-02-11 18:11:00,
2013-02-11 13:22:00,35.0,32.0,29.31,SW,215,0.0,0.0,88,0.00,,,0.77,,2013-02-11 18:22:00,
2013-02-11 13:32:00,35.0,32.0,29.31,SW,215,0.0,0.0,88,0.00,,,0.77,,2013-02-11 18:32:00,
2013-02-11 13:42:00,35.0,32.0,29.31,SW,215,0.0,0.0,88,0.00,,,0.77,,2013-02-11 18:42:00,
2013-02-11 13:54:00,35.0,32.0,29.31,SW,215,0.0,0.0,88,0.00,,,0.77,,2013-02-11 18:54:00,
2013-02-11 21:32:00,28.0,27.0,29.65,NW,321,0.0,0.0,94,0.00,,,0.58,,2013-02-12 02:32:00,
2013-02-11 21:42:00,28.0,27.0,29.65,NW,321,0.0,0.0,94,0.00,,,0.58,,2013-02-12 02:42:00,
2013-02-11 21:53:00,28.0,26.0,29.67,NNW,334,0.0,0.0,93,0.00,,,0.56,,2013-02-12 02:53:00,
2013-02-11 22:02:00,27.0,25.0,29.67,NNW,337,0.0,0.0,91,0.00,,,0.54,,2013-02-12 03:02:00,
2013-02-11 22:11:00,27.0,24.0,29.67,North,1,0.0,0.0,90,0.00,,,0.52,,2013-02-12 03:11:00,
2013-02-11 22:21:00,27.0,24.0,29.67,North,1,0.0,0.0,90,0.00,,,0.52,,2013-02-12 03:21:00,
2013-02-11 22:32:00,27.0,24.0,29.68,NNW,338,0.0,0.0,90,0.00,,,0.49,,2013-02-12 03:32:00,
2013-02-11 22:42:00,27.0,24.0,29.69,NW,309,0.0,0.0,89,0.00,,,0.47,,2013-02-12 03:42:00,
2013-02-11 22:52:00,27.0,24.0,29.69,NW,309,0.0,0.0,89,0.00,,,0.47,,2013-02-12 03:52:00,
2013-02-11 23:01:00,26.0,23.0,29.70,NNW,346,0.0,0.0,88,0.00,,,0.45,,2013-02-12 04:01:00,
2013-02-11 23:11:00,26.0,23.0,29.70,NNW,346,0.0,0.0,88,0.00,,,0.45,,2013-02-12 04:11:00,
2013-02-11 23:21:00,26.0,23.0,29.70,NNW,331,0.0,0.0,87,0.00,,,0.43,,2013-02-12 04:21:00,
2013-02-11 23:31:00,26.0,23.0,29.70,NW,320,0.0,0.0,88,0.00,,,0.41,,2013-02-12 04:31:00,
2013-02-11 23:42:00,26.0,23.0,29.70,NW,320,0.0,0.0,88,0.00,,,0.41,,2013-02-12 04:42:00,
2013-02-11 23:52:00,27.0,24.0,29.71,NW,323,0.0,0.0,87,0.00,,,0.39,,2013-02-12 04:52:00,